sensor_id;sensor_type;location;lat;lon;timestamp;P1;durP1;ratioP1;P2;durP2;ratioP2
3034;SDS011;1527;48.836;9.172;2022-08-30T00:01:29;6.90;;;6.20;;
3034;SDS011;1527;48.836;9.172;2022-08-30T00:04:29;11.02;;;6.63;;
3034;SDS011;1527;48.836;9.172;2022-08-30T00:07:22;8.35;;;6.63;;
3034;SDS011;1527;48.836;9.172;2022-08-30T00:10:15;7.00;;;6.25;;
3034;SDS011;1527;48.836;9.172;2022-08-30T00:13:09;7.70;;;6.85;;
3034;SDS011;1527;48.836;9.172;2022-08-30T00:16:05;10.02;;;6.70;;
3034;SDS011;1527;48.836;9.172;2022-08-30T00:19:01;8.95;;;6.93;;
3034;SDS011;1527;48.836;9.172;2022-08-30T00:22:01;7.75;;;6.97;;
3034;SDS011;1527;48.836;9.172;2022-08-30T00:25:19;7.15;;;6.45;;
3034;SDS011;1527;48.836;9.172;2022-08-30T00:28:13;7.43;;;6.63;;
3034;SDS011;1527;48.836;9.172;2022-08-30T00:31:09;9.90;;;6.97;;
3034;SDS011;1527;48.836;9.172;2022-08-30T00:34:11;8.20;;;6.50;;
3034;SDS011;1527;48.836;9.172;2022-08-30T00:41:13;10.95;;;6.95;;
3034;SDS011;1527;48.836;9.172;2022-08-30T00:44:34;7.30;;;6.55;;
3034;SDS011;1527;48.836;9.172;2022-08-30T00:47:54;9.35;;;6.72;;
3034;SDS011;1527;48.836;9.172;2022-08-30T00:50:51;7.25;;;6.55;;
3034;SDS011;1527;48.836;9.172;2022-08-30T00:53:53;10.70;;;7.72;;
3034;SDS011;1527;48.836;9.172;2022-08-30T00:56:50;7.90;;;6.93;;
3034;SDS011;1527;48.836;9.172;2022-08-30T00:59:51;7.55;;;6.82;;
3034;SDS011;1527;48.836;9.172;2022-08-30T01:02:46;7.45;;;6.75;;
3034;SDS011;1527;48.836;9.172;2022-08-30T01:06:07;8.60;;;7.32;;
3034;SDS011;1527;48.836;9.172;2022-08-30T01:09:03;12.40;;;6.80;;
3034;SDS011;1527;48.836;9.172;2022-08-30T01:12:02;9.45;;;7.35;;
3034;SDS011;1527;48.836;9.172;2022-08-30T01:14:58;9.27;;;8.23;;
3034;SDS011;1527;48.836;9.172;2022-08-30T01:18:16;8.85;;;6.88;;
3034;SDS011;1527;48.836;9.172;2022-08-30T01:21:16;8.00;;;7.13;;
3034;SDS011;1527;48.836;9.172;2022-08-30T01:24:16;8.20;;;7.07;;
3034;SDS011;1527;48.836;9.172;2022-08-30T01:27:12;13.18;;;7.75;;
3034;SDS011;1527;48.836;9.172;2022-08-30T01:30:31;9.43;;;7.40;;
3034;SDS011;1527;48.836;9.172;2022-08-30T01:33:30;8.65;;;6.88;;
3034;SDS011;1527;48.836;9.172;2022-08-30T01:36:50;8.50;;;7.20;;
3034;SDS011;1527;48.836;9.172;2022-08-30T01:39:45;8.55;;;7.30;;
3034;SDS011;1527;48.836;9.172;2022-08-30T01:43:03;9.35;;;7.43;;
3034;SDS011;1527;48.836;9.172;2022-08-30T01:46:26;14.07;;;7.13;;
3034;SDS011;1527;48.836;9.172;2022-08-30T01:52:52;10.15;;;6.70;;
3034;SDS011;1527;48.836;9.172;2022-08-30T01:55:47;8.15;;;6.50;;
3034;SDS011;1527;48.836;9.172;2022-08-30T01:58:40;9.73;;;7.50;;
3034;SDS011;1527;48.836;9.172;2022-08-30T02:01:35;8.27;;;7.20;;
3034;SDS011;1527;48.836;9.172;2022-08-30T02:04:30;9.27;;;6.78;;
3034;SDS011;1527;48.836;9.172;2022-08-30T02:07:24;7.93;;;7.15;;
3034;SDS011;1527;48.836;9.172;2022-08-30T02:10:20;8.10;;;6.70;;
3034;SDS011;1527;48.836;9.172;2022-08-30T02:13:41;7.43;;;6.47;;
3034;SDS011;1527;48.836;9.172;2022-08-30T02:16:36;7.05;;;6.20;;
3034;SDS011;1527;48.836;9.172;2022-08-30T02:19:30;8.88;;;7.07;;
3034;SDS011;1527;48.836;9.172;2022-08-30T02:22:23;9.23;;;7.40;;
3034;SDS011;1527;48.836;9.172;2022-08-30T02:25:16;9.02;;;7.22;;
3034;SDS011;1527;48.836;9.172;2022-08-30T02:28:11;14.60;;;8.10;;
3034;SDS011;1527;48.836;9.172;2022-08-30T02:31:13;12.68;;;7.47;;
3034;SDS011;1527;48.836;9.172;2022-08-30T02:34:07;7.70;;;7.00;;
3034;SDS011;1527;48.836;9.172;2022-08-30T02:37:26;8.10;;;6.97;;
3034;SDS011;1527;48.836;9.172;2022-08-30T02:40:45;8.90;;;7.32;;
3034;SDS011;1527;48.836;9.172;2022-08-30T02:44:05;7.90;;;7.10;;
3034;SDS011;1527;48.836;9.172;2022-08-30T02:47:01;9.80;;;8.38;;
3034;SDS011;1527;48.836;9.172;2022-08-30T02:49:55;8.00;;;7.25;;
3034;SDS011;1527;48.836;9.172;2022-08-30T02:53:17;11.32;;;7.35;;
3034;SDS011;1527;48.836;9.172;2022-08-30T02:56:14;7.65;;;6.40;;
3034;SDS011;1527;48.836;9.172;2022-08-30T02:59:09;11.15;;;7.55;;
3034;SDS011;1527;48.836;9.172;2022-08-30T03:02:29;11.25;;;7.68;;
3034;SDS011;1527;48.836;9.172;2022-08-30T03:05:48;10.73;;;8.15;;
3034;SDS011;1527;48.836;9.172;2022-08-30T03:09:06;10.20;;;8.20;;
3034;SDS011;1527;48.836;9.172;2022-08-30T03:12:24;9.80;;;8.15;;
3034;SDS011;1527;48.836;9.172;2022-08-30T03:15:44;9.32;;;8.43;;
3034;SDS011;1527;48.836;9.172;2022-08-30T03:19:06;12.38;;;6.95;;
3034;SDS011;1527;48.836;9.172;2022-08-30T03:22:27;10.10;;;8.15;;
3034;SDS011;1527;48.836;9.172;2022-08-30T03:25:21;8.45;;;7.47;;
3034;SDS011;1527;48.836;9.172;2022-08-30T03:28:15;9.40;;;7.60;;
3034;SDS011;1527;48.836;9.172;2022-08-30T03:31:33;10.77;;;8.40;;
3034;SDS011;1527;48.836;9.172;2022-08-30T03:34:29;12.30;;;7.72;;
3034;SDS011;1527;48.836;9.172;2022-08-30T03:37:47;10.63;;;8.38;;
3034;SDS011;1527;48.836;9.172;2022-08-30T03:41:05;12.32;;;9.93;;
3034;SDS011;1527;48.836;9.172;2022-08-30T03:43:58;9.18;;;8.23;;
3034;SDS011;1527;48.836;9.172;2022-08-30T03:46:52;12.80;;;8.40;;
3034;SDS011;1527;48.836;9.172;2022-08-30T03:50:11;8.60;;;7.57;;
3034;SDS011;1527;48.836;9.172;2022-08-30T03:53:11;9.98;;;8.15;;
3034;SDS011;1527;48.836;9.172;2022-08-30T03:56:05;11.40;;;7.50;;
3034;SDS011;1527;48.836;9.172;2022-08-30T03:59:24;12.73;;;8.98;;
3034;SDS011;1527;48.836;9.172;2022-08-30T04:02:42;11.23;;;7.82;;
3034;SDS011;1527;48.836;9.172;2022-08-30T04:06:01;9.07;;;7.85;;
3034;SDS011;1527;48.836;9.172;2022-08-30T04:08:54;13.32;;;8.32;;
3034;SDS011;1527;48.836;9.172;2022-08-30T04:11:48;11.40;;;8.25;;
3034;SDS011;1527;48.836;9.172;2022-08-30T04:14:43;10.77;;;8.25;;
3034;SDS011;1527;48.836;9.172;2022-08-30T04:17:36;13.10;;;8.50;;
3034;SDS011;1527;48.836;9.172;2022-08-30T04:20:31;9.63;;;8.68;;
3034;SDS011;1527;48.836;9.172;2022-08-30T04:23:26;11.25;;;8.63;;
3034;SDS011;1527;48.836;9.172;2022-08-30T04:26:20;10.85;;;9.63;;
3034;SDS011;1527;48.836;9.172;2022-08-30T04:29:14;9.80;;;7.75;;
3034;SDS011;1527;48.836;9.172;2022-08-30T04:32:08;9.73;;;8.05;;
3034;SDS011;1527;48.836;9.172;2022-08-30T04:35:26;10.35;;;8.60;;
3034;SDS011;1527;48.836;9.172;2022-08-30T04:38:48;16.20;;;8.15;;
3034;SDS011;1527;48.836;9.172;2022-08-30T04:42:06;12.30;;;8.50;;
3034;SDS011;1527;48.836;9.172;2022-08-30T04:45:03;15.10;;;8.45;;
3034;SDS011;1527;48.836;9.172;2022-08-30T04:47:59;10.70;;;8.38;;
3034;SDS011;1527;48.836;9.172;2022-08-30T04:50:52;10.65;;;8.23;;
3034;SDS011;1527;48.836;9.172;2022-08-30T04:53:45;8.48;;;7.50;;
3034;SDS011;1527;48.836;9.172;2022-08-30T04:56:40;10.88;;;8.55;;
3034;SDS011;1527;48.836;9.172;2022-08-30T05:00:00;9.40;;;7.93;;
3034;SDS011;1527;48.836;9.172;2022-08-30T05:03:20;10.57;;;8.32;;
3034;SDS011;1527;48.836;9.172;2022-08-30T05:06:15;14.73;;;8.35;;
3034;SDS011;1527;48.836;9.172;2022-08-30T05:09:11;10.60;;;9.05;;
3034;SDS011;1527;48.836;9.172;2022-08-30T05:12:06;9.25;;;7.97;;
3034;SDS011;1527;48.836;9.172;2022-08-30T05:15:03;13.18;;;9.73;;
3034;SDS011;1527;48.836;9.172;2022-08-30T05:17:59;11.80;;;9.13;;
3034;SDS011;1527;48.836;9.172;2022-08-30T05:21:02;10.13;;;8.93;;
3034;SDS011;1527;48.836;9.172;2022-08-30T05:23:59;10.23;;;8.15;;
3034;SDS011;1527;48.836;9.172;2022-08-30T05:27:19;12.90;;;8.15;;
3034;SDS011;1527;48.836;9.172;2022-08-30T05:30:14;9.07;;;8.15;;
3034;SDS011;1527;48.836;9.172;2022-08-30T05:33:08;11.85;;;8.20;;
3034;SDS011;1527;48.836;9.172;2022-08-30T05:36:27;14.98;;;8.93;;
3034;SDS011;1527;48.836;9.172;2022-08-30T05:39:29;10.13;;;8.07;;
3034;SDS011;1527;48.836;9.172;2022-08-30T05:42:25;13.40;;;8.82;;
3034;SDS011;1527;48.836;9.172;2022-08-30T05:45:43;9.25;;;7.22;;
3034;SDS011;1527;48.836;9.172;2022-08-30T05:49:02;9.95;;;7.60;;
3034;SDS011;1527;48.836;9.172;2022-08-30T05:52:02;9.30;;;8.13;;
3034;SDS011;1527;48.836;9.172;2022-08-30T05:54:56;13.50;;;9.73;;
3034;SDS011;1527;48.836;9.172;2022-08-30T05:58:16;12.45;;;8.48;;
3034;SDS011;1527;48.836;9.172;2022-08-30T06:01:37;9.35;;;7.82;;
3034;SDS011;1527;48.836;9.172;2022-08-30T06:04:37;10.57;;;8.23;;
3034;SDS011;1527;48.836;9.172;2022-08-30T06:07:12;12.10;;;8.15;;
3034;SDS011;1527;48.836;9.172;2022-08-30T06:10:32;10.77;;;9.18;;
3034;SDS011;1527;48.836;9.172;2022-08-30T06:13:51;10.88;;;8.38;;
3034;SDS011;1527;48.836;9.172;2022-08-30T06:16:51;14.23;;;9.50;;
3034;SDS011;1527;48.836;9.172;2022-08-30T06:20:09;10.05;;;9.05;;
3034;SDS011;1527;48.836;9.172;2022-08-30T06:23:29;12.50;;;9.35;;
3034;SDS011;1527;48.836;9.172;2022-08-30T06:26:23;14.30;;;9.00;;
3034;SDS011;1527;48.836;9.172;2022-08-30T06:29:19;12.57;;;9.60;;
3034;SDS011;1527;48.836;9.172;2022-08-30T06:32:38;10.63;;;9.35;;
3034;SDS011;1527;48.836;9.172;2022-08-30T06:36:00;9.83;;;8.93;;
3034;SDS011;1527;48.836;9.172;2022-08-30T06:39:23;13.80;;;10.02;;
3034;SDS011;1527;48.836;9.172;2022-08-30T06:42:42;17.25;;;9.88;;
3034;SDS011;1527;48.836;9.172;2022-08-30T06:46:02;15.57;;;10.50;;
3034;SDS011;1527;48.836;9.172;2022-08-30T06:49:01;19.55;;;11.02;;
3034;SDS011;1527;48.836;9.172;2022-08-30T06:51:56;12.10;;;10.00;;
3034;SDS011;1527;48.836;9.172;2022-08-30T06:54:49;13.38;;;10.45;;
3034;SDS011;1527;48.836;9.172;2022-08-30T06:58:09;11.73;;;10.52;;
3034;SDS011;1527;48.836;9.172;2022-08-30T07:01:04;17.10;;;12.10;;
3034;SDS011;1527;48.836;9.172;2022-08-30T07:04:23;13.35;;;11.40;;
3034;SDS011;1527;48.836;9.172;2022-08-30T07:07:16;11.93;;;10.50;;
3034;SDS011;1527;48.836;9.172;2022-08-30T07:10:09;22.23;;;10.90;;
3034;SDS011;1527;48.836;9.172;2022-08-30T07:13:04;14.20;;;10.53;;
3034;SDS011;1527;48.836;9.172;2022-08-30T07:15:57;18.40;;;12.10;;
3034;SDS011;1527;48.836;9.172;2022-08-30T07:18:53;16.83;;;11.65;;
3034;SDS011;1527;48.836;9.172;2022-08-30T07:21:48;12.50;;;11.20;;
3034;SDS011;1527;48.836;9.172;2022-08-30T07:24:42;17.93;;;11.73;;
3034;SDS011;1527;48.836;9.172;2022-08-30T07:31:21;13.53;;;9.20;;
3034;SDS011;1527;48.836;9.172;2022-08-30T07:34:41;14.90;;;10.90;;
3034;SDS011;1527;48.836;9.172;2022-08-30T07:38:00;17.70;;;9.37;;
3034;SDS011;1527;48.836;9.172;2022-08-30T07:41:05;10.70;;;8.90;;
3034;SDS011;1527;48.836;9.172;2022-08-30T07:44:24;11.52;;;10.32;;
3034;SDS011;1527;48.836;9.172;2022-08-30T07:47:42;13.93;;;10.70;;
3034;SDS011;1527;48.836;9.172;2022-08-30T07:50:37;12.63;;;10.10;;
3034;SDS011;1527;48.836;9.172;2022-08-30T07:53:36;11.80;;;9.43;;
3034;SDS011;1527;48.836;9.172;2022-08-30T07:56:54;17.03;;;8.60;;
3034;SDS011;1527;48.836;9.172;2022-08-30T08:00:14;9.63;;;8.63;;
3034;SDS011;1527;48.836;9.172;2022-08-30T08:03:13;11.87;;;8.63;;
3034;SDS011;1527;48.836;9.172;2022-08-30T08:06:10;8.77;;;7.93;;
3034;SDS011;1527;48.836;9.172;2022-08-30T08:09:08;9.20;;;7.70;;
3034;SDS011;1527;48.836;9.172;2022-08-30T08:12:02;11.33;;;8.87;;
3034;SDS011;1527;48.836;9.172;2022-08-30T08:15:22;12.33;;;9.40;;
3034;SDS011;1527;48.836;9.172;2022-08-30T08:18:42;12.43;;;8.33;;
3034;SDS011;1527;48.836;9.172;2022-08-30T08:22:01;9.50;;;8.60;;
3034;SDS011;1527;48.836;9.172;2022-08-30T08:24:57;11.90;;;8.20;;
3034;SDS011;1527;48.836;9.172;2022-08-30T08:27:50;10.47;;;8.30;;
3034;SDS011;1527;48.836;9.172;2022-08-30T08:30:45;9.70;;;7.43;;
3034;SDS011;1527;48.836;9.172;2022-08-30T08:33:45;9.17;;;7.30;;
3034;SDS011;1527;48.836;9.172;2022-08-30T08:37:06;6.90;;;6.13;;
3034;SDS011;1527;48.836;9.172;2022-08-30T08:39:59;9.63;;;6.83;;
3034;SDS011;1527;48.836;9.172;2022-08-30T08:43:18;7.97;;;6.83;;
3034;SDS011;1527;48.836;9.172;2022-08-30T08:46:15;13.03;;;7.20;;
3034;SDS011;1527;48.836;9.172;2022-08-30T08:49:18;9.00;;;7.67;;
3034;SDS011;1527;48.836;9.172;2022-08-30T08:52:15;8.90;;;6.40;;
3034;SDS011;1527;48.836;9.172;2022-08-30T08:55:37;7.37;;;6.60;;
3034;SDS011;1527;48.836;9.172;2022-08-30T08:58:42;7.23;;;6.63;;
3034;SDS011;1527;48.836;9.172;2022-08-30T09:01:42;6.67;;;5.93;;
3034;SDS011;1527;48.836;9.172;2022-08-30T09:04:36;7.07;;;6.23;;
3034;SDS011;1527;48.836;9.172;2022-08-30T09:07:33;7.50;;;6.80;;
3034;SDS011;1527;48.836;9.172;2022-08-30T09:10:32;12.83;;;7.77;;
3034;SDS011;1527;48.836;9.172;2022-08-30T09:13:52;8.17;;;6.43;;
3034;SDS011;1527;48.836;9.172;2022-08-30T09:16:46;6.60;;;5.97;;
3034;SDS011;1527;48.836;9.172;2022-08-30T09:19:56;8.70;;;6.17;;
3034;SDS011;1527;48.836;9.172;2022-08-30T09:22:53;9.03;;;6.53;;
3034;SDS011;1527;48.836;9.172;2022-08-30T09:25:53;6.77;;;6.20;;
3034;SDS011;1527;48.836;9.172;2022-08-30T09:28:50;12.27;;;7.43;;
3034;SDS011;1527;48.836;9.172;2022-08-30T09:32:09;7.30;;;6.57;;
3034;SDS011;1527;48.836;9.172;2022-08-30T09:35:45;6.87;;;6.17;;
3034;SDS011;1527;48.836;9.172;2022-08-30T09:38:47;9.10;;;7.37;;
3034;SDS011;1527;48.836;9.172;2022-08-30T09:41:54;7.73;;;6.00;;
3034;SDS011;1527;48.836;9.172;2022-08-30T09:45:09;6.83;;;6.20;;
3034;SDS011;1527;48.836;9.172;2022-08-30T09:48:21;8.20;;;6.40;;
3034;SDS011;1527;48.836;9.172;2022-08-30T09:51:28;8.67;;;6.80;;
3034;SDS011;1527;48.836;9.172;2022-08-30T09:54:43;7.60;;;6.53;;
3034;SDS011;1527;48.836;9.172;2022-08-30T09:57:54;10.60;;;6.63;;
3034;SDS011;1527;48.836;9.172;2022-08-30T10:01:09;23.43;;;11.17;;
3034;SDS011;1527;48.836;9.172;2022-08-30T10:04:11;6.83;;;6.23;;
3034;SDS011;1527;48.836;9.172;2022-08-30T10:07:12;6.17;;;5.57;;
3034;SDS011;1527;48.836;9.172;2022-08-30T10:10:23;7.23;;;6.50;;
3034;SDS011;1527;48.836;9.172;2022-08-30T10:13:34;6.93;;;6.27;;
3034;SDS011;1527;48.836;9.172;2022-08-30T10:16:44;6.13;;;5.63;;
3034;SDS011;1527;48.836;9.172;2022-08-30T10:19:50;6.00;;;5.50;;
3034;SDS011;1527;48.836;9.172;2022-08-30T10:22:58;6.50;;;5.83;;
3034;SDS011;1527;48.836;9.172;2022-08-30T10:26:02;6.70;;;5.90;;
3034;SDS011;1527;48.836;9.172;2022-08-30T10:29:05;6.93;;;6.23;;
3034;SDS011;1527;48.836;9.172;2022-08-30T10:32:10;8.00;;;6.77;;
3034;SDS011;1527;48.836;9.172;2022-08-30T10:35:12;7.43;;;6.73;;
3034;SDS011;1527;48.836;9.172;2022-08-30T10:38:38;7.07;;;6.23;;
3034;SDS011;1527;48.836;9.172;2022-08-30T10:41:40;6.40;;;5.90;;
3034;SDS011;1527;48.836;9.172;2022-08-30T10:44:40;7.33;;;6.13;;
3034;SDS011;1527;48.836;9.172;2022-08-30T10:47:42;7.70;;;6.43;;
3034;SDS011;1527;48.836;9.172;2022-08-30T10:50:45;7.33;;;6.43;;
3034;SDS011;1527;48.836;9.172;2022-08-30T10:53:45;7.30;;;5.90;;
3034;SDS011;1527;48.836;9.172;2022-08-30T10:56:46;5.80;;;5.30;;
3034;SDS011;1527;48.836;9.172;2022-08-30T10:59:47;5.93;;;5.33;;
3034;SDS011;1527;48.836;9.172;2022-08-30T11:03:25;8.70;;;6.10;;
3034;SDS011;1527;48.836;9.172;2022-08-30T11:06:57;6.67;;;6.17;;
3034;SDS011;1527;48.836;9.172;2022-08-30T11:10:06;7.03;;;6.33;;
3034;SDS011;1527;48.836;9.172;2022-08-30T11:13:16;7.17;;;6.10;;
3034;SDS011;1527;48.836;9.172;2022-08-30T11:16:14;7.20;;;6.07;;
3034;SDS011;1527;48.836;9.172;2022-08-30T11:19:16;6.60;;;5.67;;
3034;SDS011;1527;48.836;9.172;2022-08-30T11:22:38;6.70;;;6.10;;
3034;SDS011;1527;48.836;9.172;2022-08-30T11:25:58;5.53;;;5.10;;
3034;SDS011;1527;48.836;9.172;2022-08-30T11:29:33;10.37;;;6.70;;
3034;SDS011;1527;48.836;9.172;2022-08-30T11:37:01;5.90;;;5.40;;
3034;SDS011;1527;48.836;9.172;2022-08-30T11:43:49;7.30;;;6.60;;
3034;SDS011;1527;48.836;9.172;2022-08-30T11:46:50;6.00;;;5.50;;
3034;SDS011;1527;48.836;9.172;2022-08-30T11:50:11;7.50;;;6.20;;
3034;SDS011;1527;48.836;9.172;2022-08-30T11:53:13;7.77;;;7.00;;
3034;SDS011;1527;48.836;9.172;2022-08-30T11:56:18;6.87;;;6.17;;
3034;SDS011;1527;48.836;9.172;2022-08-30T11:59:18;6.73;;;6.10;;
3034;SDS011;1527;48.836;9.172;2022-08-30T12:02:46;6.67;;;5.90;;
3034;SDS011;1527;48.836;9.172;2022-08-30T12:05:51;6.73;;;6.13;;
3034;SDS011;1527;48.836;9.172;2022-08-30T12:08:51;7.00;;;6.20;;
3034;SDS011;1527;48.836;9.172;2022-08-30T12:14:51;6.10;;;5.50;;
3034;SDS011;1527;48.836;9.172;2022-08-30T12:18:15;7.10;;;5.87;;
3034;SDS011;1527;48.836;9.172;2022-08-30T12:21:25;6.40;;;5.90;;
3034;SDS011;1527;48.836;9.172;2022-08-30T12:24:35;6.80;;;6.17;;
3034;SDS011;1527;48.836;9.172;2022-08-30T12:27:35;6.97;;;6.33;;
3034;SDS011;1527;48.836;9.172;2022-08-30T12:30:29;6.67;;;6.03;;
3034;SDS011;1527;48.836;9.172;2022-08-30T12:33:33;7.53;;;6.70;;
3034;SDS011;1527;48.836;9.172;2022-08-30T12:36:59;9.33;;;6.20;;
3034;SDS011;1527;48.836;9.172;2022-08-30T12:40:03;6.27;;;5.87;;
3034;SDS011;1527;48.836;9.172;2022-08-30T12:43:03;7.00;;;5.67;;
3034;SDS011;1527;48.836;9.172;2022-08-30T12:46:05;6.10;;;5.60;;
3034;SDS011;1527;48.836;9.172;2022-08-30T12:49:04;5.80;;;5.30;;
3034;SDS011;1527;48.836;9.172;2022-08-30T12:52:25;6.03;;;5.40;;
3034;SDS011;1527;48.836;9.172;2022-08-30T12:55:28;6.47;;;5.90;;
3034;SDS011;1527;48.836;9.172;2022-08-30T12:58:35;6.13;;;5.53;;
3034;SDS011;1527;48.836;9.172;2022-08-30T13:01:34;6.17;;;5.57;;
3034;SDS011;1527;48.836;9.172;2022-08-30T13:04:34;6.97;;;6.37;;
3034;SDS011;1527;48.836;9.172;2022-08-30T13:07:34;5.77;;;5.30;;
3034;SDS011;1527;48.836;9.172;2022-08-30T13:10:28;6.47;;;5.97;;
3034;SDS011;1527;48.836;9.172;2022-08-30T13:13:26;6.50;;;5.93;;
3034;SDS011;1527;48.836;9.172;2022-08-30T13:16:33;5.80;;;5.20;;
3034;SDS011;1527;48.836;9.172;2022-08-30T13:19:39;7.43;;;5.60;;
3034;SDS011;1527;48.836;9.172;2022-08-30T13:23:04;5.90;;;5.40;;
3034;SDS011;1527;48.836;9.172;2022-08-30T13:26:05;7.73;;;6.00;;
3034;SDS011;1527;48.836;9.172;2022-08-30T13:29:09;6.77;;;5.83;;
3034;SDS011;1527;48.836;9.172;2022-08-30T13:32:08;6.70;;;6.07;;
3034;SDS011;1527;48.836;9.172;2022-08-30T13:35:08;6.43;;;5.60;;
3034;SDS011;1527;48.836;9.172;2022-08-30T13:38:29;5.53;;;5.13;;
3034;SDS011;1527;48.836;9.172;2022-08-30T13:41:09;6.93;;;4.63;;
3034;SDS011;1527;48.836;9.172;2022-08-30T13:44:28;6.17;;;5.10;;
3034;SDS011;1527;48.836;9.172;2022-08-30T13:47:47;5.77;;;5.27;;
3034;SDS011;1527;48.836;9.172;2022-08-30T13:51:07;8.23;;;6.20;;
3034;SDS011;1527;48.836;9.172;2022-08-30T13:54:01;10.20;;;6.43;;
3034;SDS011;1527;48.836;9.172;2022-08-30T13:57:20;6.27;;;5.67;;
3034;SDS011;1527;48.836;9.172;2022-08-30T14:00:43;5.47;;;5.07;;
3034;SDS011;1527;48.836;9.172;2022-08-30T14:03:36;7.20;;;6.43;;
3034;SDS011;1527;48.836;9.172;2022-08-30T14:06:31;7.40;;;5.60;;
3034;SDS011;1527;48.836;9.172;2022-08-30T14:09:50;6.97;;;6.10;;
3034;SDS011;1527;48.836;9.172;2022-08-30T14:13:09;8.93;;;5.90;;
3034;SDS011;1527;48.836;9.172;2022-08-30T14:16:04;6.87;;;5.97;;
3034;SDS011;1527;48.836;9.172;2022-08-30T14:19:00;6.13;;;5.53;;
3034;SDS011;1527;48.836;9.172;2022-08-30T14:21:55;6.03;;;5.53;;
3034;SDS011;1527;48.836;9.172;2022-08-30T14:24:49;6.90;;;6.17;;
3034;SDS011;1527;48.836;9.172;2022-08-30T14:27:50;6.40;;;5.90;;
3034;SDS011;1527;48.836;9.172;2022-08-30T14:30:44;7.17;;;6.10;;
3034;SDS011;1527;48.836;9.172;2022-08-30T14:33:38;6.70;;;5.80;;
3034;SDS011;1527;48.836;9.172;2022-08-30T14:36:57;6.30;;;5.80;;
3034;SDS011;1527;48.836;9.172;2022-08-30T14:39:51;14.33;;;6.50;;
3034;SDS011;1527;48.836;9.172;2022-08-30T14:42:44;8.00;;;7.17;;
3034;SDS011;1527;48.836;9.172;2022-08-30T14:46:02;6.37;;;5.73;;
3034;SDS011;1527;48.836;9.172;2022-08-30T14:49:20;9.00;;;6.20;;
3034;SDS011;1527;48.836;9.172;2022-08-30T14:52:42;10.87;;;6.10;;
3034;SDS011;1527;48.836;9.172;2022-08-30T14:56:05;6.53;;;5.93;;
3034;SDS011;1527;48.836;9.172;2022-08-30T14:59:01;6.13;;;5.60;;
3034;SDS011;1527;48.836;9.172;2022-08-30T15:01:57;7.80;;;6.43;;
3034;SDS011;1527;48.836;9.172;2022-08-30T15:04:51;6.97;;;6.37;;
3034;SDS011;1527;48.836;9.172;2022-08-30T15:08:11;6.47;;;5.70;;
3034;SDS011;1527;48.836;9.172;2022-08-30T15:11:30;6.50;;;5.57;;
3034;SDS011;1527;48.836;9.172;2022-08-30T15:14:49;8.73;;;6.30;;
3034;SDS011;1527;48.836;9.172;2022-08-30T15:18:07;6.50;;;5.77;;
3034;SDS011;1527;48.836;9.172;2022-08-30T15:21:01;5.93;;;5.33;;
3034;SDS011;1527;48.836;9.172;2022-08-30T15:24:21;6.13;;;5.60;;
3034;SDS011;1527;48.836;9.172;2022-08-30T15:27:16;6.53;;;5.93;;
3034;SDS011;1527;48.836;9.172;2022-08-30T15:30:10;7.07;;;6.37;;
3034;SDS011;1527;48.836;9.172;2022-08-30T15:33:05;7.97;;;6.00;;
3034;SDS011;1527;48.836;9.172;2022-08-30T15:36:24;7.73;;;6.13;;
3034;SDS011;1527;48.836;9.172;2022-08-30T15:39:46;6.53;;;5.90;;
3034;SDS011;1527;48.836;9.172;2022-08-30T15:42:40;8.73;;;6.50;;
3034;SDS011;1527;48.836;9.172;2022-08-30T15:45:35;7.10;;;6.50;;
3034;SDS011;1527;48.836;9.172;2022-08-30T15:48:31;6.67;;;5.97;;
3034;SDS011;1527;48.836;9.172;2022-08-30T15:51:25;6.70;;;5.90;;
3034;SDS011;1527;48.836;9.172;2022-08-30T15:54:20;7.30;;;6.37;;
3034;SDS011;1527;48.836;9.172;2022-08-30T15:57:16;6.57;;;6.07;;
3034;SDS011;1527;48.836;9.172;2022-08-30T16:00:11;7.63;;;6.53;;
3034;SDS011;1527;48.836;9.172;2022-08-30T16:03:10;7.70;;;6.87;;
3034;SDS011;1527;48.836;9.172;2022-08-30T16:06:31;6.80;;;6.10;;
3034;SDS011;1527;48.836;9.172;2022-08-30T16:09:33;6.83;;;6.13;;
3034;SDS011;1527;48.836;9.172;2022-08-30T16:12:56;6.23;;;5.63;;
3034;SDS011;1527;48.836;9.172;2022-08-30T16:15:52;6.47;;;5.80;;
3034;SDS011;1527;48.836;9.172;2022-08-30T16:18:45;8.37;;;5.83;;
3034;SDS011;1527;48.836;9.172;2022-08-30T16:21:40;6.40;;;5.80;;
3034;SDS011;1527;48.836;9.172;2022-08-30T16:24:34;7.10;;;6.40;;
3034;SDS011;1527;48.836;9.172;2022-08-30T16:27:27;9.30;;;6.10;;
3034;SDS011;1527;48.836;9.172;2022-08-30T16:30:23;6.70;;;6.10;;
3034;SDS011;1527;48.836;9.172;2022-08-30T16:33:16;8.93;;;6.37;;
3034;SDS011;1527;48.836;9.172;2022-08-30T16:36:36;8.07;;;6.87;;
3034;SDS011;1527;48.836;9.172;2022-08-30T16:40:03;5.93;;;5.33;;
3034;SDS011;1527;48.836;9.172;2022-08-30T16:43:23;6.60;;;6.10;;
3034;SDS011;1527;48.836;9.172;2022-08-30T16:46:17;6.87;;;6.10;;
3034;SDS011;1527;48.836;9.172;2022-08-30T16:49:19;6.97;;;6.10;;
3034;SDS011;1527;48.836;9.172;2022-08-30T16:51:55;9.47;;;6.27;;
3034;SDS011;1527;48.836;9.172;2022-08-30T16:54:49;6.20;;;5.60;;
3034;SDS011;1527;48.836;9.172;2022-08-30T16:57:44;7.30;;;6.60;;
3034;SDS011;1527;48.836;9.172;2022-08-30T17:00:39;7.63;;;6.83;;
3034;SDS011;1527;48.836;9.172;2022-08-30T17:03:36;9.70;;;6.90;;
3034;SDS011;1527;48.836;9.172;2022-08-30T17:06:31;6.73;;;6.03;;
3034;SDS011;1527;48.836;9.172;2022-08-30T17:09:25;6.60;;;6.00;;
3034;SDS011;1527;48.836;9.172;2022-08-30T17:12:18;6.77;;;5.83;;
3034;SDS011;1527;48.836;9.172;2022-08-30T17:15:11;6.03;;;5.43;;
3034;SDS011;1527;48.836;9.172;2022-08-30T17:18:32;8.40;;;6.43;;
3034;SDS011;1527;48.836;9.172;2022-08-30T17:21:29;6.63;;;5.83;;
3034;SDS011;1527;48.836;9.172;2022-08-30T17:24:23;6.63;;;6.00;;
3034;SDS011;1527;48.836;9.172;2022-08-30T17:27:17;7.73;;;6.80;;
3034;SDS011;1527;48.836;9.172;2022-08-30T17:30:11;6.57;;;5.97;;
3034;SDS011;1527;48.836;9.172;2022-08-30T17:33:30;9.00;;;6.00;;
3034;SDS011;1527;48.836;9.172;2022-08-30T17:36:51;6.70;;;6.00;;
3034;SDS011;1527;48.836;9.172;2022-08-30T17:39:47;6.33;;;5.70;;
3034;SDS011;1527;48.836;9.172;2022-08-30T17:42:41;6.77;;;6.20;;
3034;SDS011;1527;48.836;9.172;2022-08-30T17:45:35;10.43;;;7.10;;
3034;SDS011;1527;48.836;9.172;2022-08-30T17:48:28;8.20;;;6.70;;
3034;SDS011;1527;48.836;9.172;2022-08-30T17:51:25;8.23;;;6.80;;
3034;SDS011;1527;48.836;9.172;2022-08-30T17:54:21;7.93;;;5.90;;
3034;SDS011;1527;48.836;9.172;2022-08-30T17:57:14;7.87;;;6.87;;
3034;SDS011;1527;48.836;9.172;2022-08-30T18:00:09;7.60;;;6.80;;
3034;SDS011;1527;48.836;9.172;2022-08-30T18:03:29;10.50;;;6.63;;
3034;SDS011;1527;48.836;9.172;2022-08-30T18:06:22;8.30;;;6.70;;
3034;SDS011;1527;48.836;9.172;2022-08-30T18:09:15;7.50;;;6.50;;
3034;SDS011;1527;48.836;9.172;2022-08-30T18:12:10;6.50;;;5.90;;
3034;SDS011;1527;48.836;9.172;2022-08-30T18:15:04;5.93;;;5.30;;
3034;SDS011;1527;48.836;9.172;2022-08-30T18:17:59;9.63;;;6.63;;
3034;SDS011;1527;48.836;9.172;2022-08-30T18:20:53;8.90;;;6.17;;
3034;SDS011;1527;48.836;9.172;2022-08-30T18:23:54;7.00;;;6.30;;
3034;SDS011;1527;48.836;9.172;2022-08-30T18:27:15;7.53;;;6.07;;
3034;SDS011;1527;48.836;9.172;2022-08-30T18:30:08;10.03;;;6.80;;
3034;SDS011;1527;48.836;9.172;2022-08-30T18:33:03;6.63;;;5.70;;
3034;SDS011;1527;48.836;9.172;2022-08-30T18:35:57;7.37;;;5.83;;
3034;SDS011;1527;48.836;9.172;2022-08-30T18:38:52;10.33;;;5.67;;
3034;SDS011;1527;48.836;9.172;2022-08-30T18:42:11;6.20;;;5.60;;
3034;SDS011;1527;48.836;9.172;2022-08-30T18:45:30;9.83;;;5.40;;
3034;SDS011;1527;48.836;9.172;2022-08-30T18:48:23;8.80;;;5.63;;
3034;SDS011;1527;48.836;9.172;2022-08-30T18:51:17;6.57;;;5.97;;
3034;SDS011;1527;48.836;9.172;2022-08-30T18:54:19;11.53;;;5.50;;
3034;SDS011;1527;48.836;9.172;2022-08-30T18:57:14;6.57;;;4.90;;
3034;SDS011;1527;48.836;9.172;2022-08-30T19:00:33;9.20;;;5.67;;
3034;SDS011;1527;48.836;9.172;2022-08-30T19:03:52;7.27;;;5.53;;
3034;SDS011;1527;48.836;9.172;2022-08-30T19:07:10;6.00;;;5.40;;
3034;SDS011;1527;48.836;9.172;2022-08-30T19:10:31;9.97;;;8.13;;
3034;SDS011;1527;48.836;9.172;2022-08-30T19:13:25;8.93;;;6.83;;
3034;SDS011;1527;48.836;9.172;2022-08-30T19:20:04;7.90;;;5.87;;
3034;SDS011;1527;48.836;9.172;2022-08-30T19:23:26;15.00;;;8.80;;
3034;SDS011;1527;48.836;9.172;2022-08-30T19:26:44;10.30;;;6.57;;